sensor_id;sensor_type;location;lat;lon;timestamp;P1;durP1;ratioP1;P2;durP2;ratioP2
23718;SDS011;43322;52.230;5.702;2022-11-02T00:00:19;6.03;;;2.70;;
23718;SDS011;43322;52.230;5.702;2022-11-02T00:02:48;12.25;;;2.85;;
23718;SDS011;43322;52.230;5.702;2022-11-02T00:05:15;11.82;;;3.40;;
23718;SDS011;43322;52.230;5.702;2022-11-02T00:07:47;10.85;;;2.78;;
23718;SDS011;43322;52.230;5.702;2022-11-02T00:10:14;12.55;;;4.18;;
23718;SDS011;43322;52.230;5.702;2022-11-02T00:12:42;10.32;;;2.60;;
23718;SDS011;43322;52.230;5.702;2022-11-02T00:15:09;10.00;;;2.85;;
23718;SDS011;43322;52.230;5.702;2022-11-02T00:17:36;9.35;;;2.72;;
23718;SDS011;43322;52.230;5.702;2022-11-02T00:20:06;17.20;;;2.45;;
23718;SDS011;43322;52.230;5.702;2022-11-02T00:22:35;10.93;;;3.10;;
23718;SDS011;43322;52.230;5.702;2022-11-02T00:25:02;14.43;;;3.33;;
23718;SDS011;43322;52.230;5.702;2022-11-02T00:27:31;12.90;;;2.58;;
23718;SDS011;43322;52.230;5.702;2022-11-02T00:29:58;9.68;;;2.47;;
23718;SDS011;43322;52.230;5.702;2022-11-02T00:32:25;14.07;;;2.88;;
23718;SDS011;43322;52.230;5.702;2022-11-02T00:34:52;13.32;;;2.97;;
23718;SDS011;43322;52.230;5.702;2022-11-02T00:37:20;12.13;;;3.40;;
23718;SDS011;43322;52.230;5.702;2022-11-02T00:39:47;15.55;;;2.95;;
23718;SDS011;43322;52.230;5.702;2022-11-02T00:42:13;10.02;;;2.22;;
23718;SDS011;43322;52.230;5.702;2022-11-02T00:44:40;16.08;;;2.85;;
23718;SDS011;43322;52.230;5.702;2022-11-02T00:47:07;13.95;;;2.53;;
23718;SDS011;43322;52.230;5.702;2022-11-02T00:49:35;9.90;;;2.60;;
23718;SDS011;43322;52.230;5.702;2022-11-02T00:52:02;9.32;;;2.08;;
23718;SDS011;43322;52.230;5.702;2022-11-02T00:54:30;8.95;;;2.17;;
23718;SDS011;43322;52.230;5.702;2022-11-02T00:56:57;8.48;;;1.98;;
23718;SDS011;43322;52.230;5.702;2022-11-02T00:59:24;10.77;;;2.20;;
23718;SDS011;43322;52.230;5.702;2022-11-02T01:01:50;11.55;;;2.33;;
23718;SDS011;43322;52.230;5.702;2022-11-02T01:04:17;5.43;;;2.28;;
23718;SDS011;43322;52.230;5.702;2022-11-02T01:06:44;6.50;;;1.88;;
23718;SDS011;43322;52.230;5.702;2022-11-02T01:09:12;6.35;;;1.60;;
23718;SDS011;43322;52.230;5.702;2022-11-02T01:11:41;10.38;;;2.17;;
23718;SDS011;43322;52.230;5.702;2022-11-02T01:14:08;5.70;;;2.15;;
23718;SDS011;43322;52.230;5.702;2022-11-02T01:16:37;5.18;;;1.92;;
23718;SDS011;43322;52.230;5.702;2022-11-02T01:19:05;9.65;;;1.90;;
23718;SDS011;43322;52.230;5.702;2022-11-02T01:21:32;4.65;;;1.70;;
23718;SDS011;43322;52.230;5.702;2022-11-02T01:23:59;7.70;;;2.03;;
23718;SDS011;43322;52.230;5.702;2022-11-02T01:26:25;10.20;;;1.85;;
23718;SDS011;43322;52.230;5.702;2022-11-02T01:28:54;9.52;;;2.45;;
23718;SDS011;43322;52.230;5.702;2022-11-02T01:31:20;3.22;;;1.70;;
23718;SDS011;43322;52.230;5.702;2022-11-02T01:33:47;4.82;;;1.20;;
23718;SDS011;43322;52.230;5.702;2022-11-02T01:36:14;4.47;;;1.30;;
23718;SDS011;43322;52.230;5.702;2022-11-02T01:38:45;2.67;;;1.60;;
23718;SDS011;43322;52.230;5.702;2022-11-02T01:41:12;3.25;;;0.90;;
23718;SDS011;43322;52.230;5.702;2022-11-02T01:43:39;3.40;;;1.02;;
23718;SDS011;43322;52.230;5.702;2022-11-02T01:46:11;2.75;;;0.90;;
23718;SDS011;43322;52.230;5.702;2022-11-02T01:48:41;3.30;;;0.90;;
23718;SDS011;43322;52.230;5.702;2022-11-02T01:51:12;3.22;;;0.85;;
23718;SDS011;43322;52.230;5.702;2022-11-02T01:53:44;1.58;;;0.90;;
23718;SDS011;43322;52.230;5.702;2022-11-02T01:56:13;2.30;;;0.85;;
23718;SDS011;43322;52.230;5.702;2022-11-02T01:58:43;6.05;;;1.88;;
23718;SDS011;43322;52.230;5.702;2022-11-02T02:01:15;4.07;;;1.13;;
23718;SDS011;43322;52.230;5.702;2022-11-02T02:03:42;3.78;;;0.95;;
23718;SDS011;43322;52.230;5.702;2022-11-02T02:06:12;2.33;;;0.77;;
23718;SDS011;43322;52.230;5.702;2022-11-02T02:08:40;4.28;;;1.13;;
23718;SDS011;43322;52.230;5.702;2022-11-02T02:11:23;4.43;;;1.13;;
23718;SDS011;43322;52.230;5.702;2022-11-02T02:13:51;3.40;;;1.10;;
23718;SDS011;43322;52.230;5.702;2022-11-02T02:16:22;2.70;;;0.88;;
23718;SDS011;43322;52.230;5.702;2022-11-02T02:19:04;3.78;;;1.00;;
23718;SDS011;43322;52.230;5.702;2022-11-02T02:21:41;1.92;;;0.90;;
23718;SDS011;43322;52.230;5.702;2022-11-02T02:24:29;2.13;;;0.75;;
23718;SDS011;43322;52.230;5.702;2022-11-02T02:27:11;1.52;;;0.70;;
23718;SDS011;43322;52.230;5.702;2022-11-02T02:29:47;2.35;;;0.68;;
23718;SDS011;43322;52.230;5.702;2022-11-02T02:32:36;2.78;;;0.73;;
23718;SDS011;43322;52.230;5.702;2022-11-02T02:35:10;3.75;;;1.08;;
23718;SDS011;43322;52.230;5.702;2022-11-02T02:37:44;5.95;;;1.17;;
23718;SDS011;43322;52.230;5.702;2022-11-02T02:40:16;2.03;;;0.80;;
23718;SDS011;43322;52.230;5.702;2022-11-02T02:42:45;2.92;;;0.88;;
23718;SDS011;43322;52.230;5.702;2022-11-02T02:45:20;4.10;;;1.15;;
23718;SDS011;43322;52.230;5.702;2022-11-02T02:47:53;2.17;;;1.02;;
23718;SDS011;43322;52.230;5.702;2022-11-02T02:50:25;5.45;;;1.05;;
23718;SDS011;43322;52.230;5.702;2022-11-02T02:52:55;5.05;;;1.30;;
23718;SDS011;43322;52.230;5.702;2022-11-02T02:55:25;6.03;;;1.40;;
23718;SDS011;43322;52.230;5.702;2022-11-02T02:57:56;7.82;;;1.50;;
23718;SDS011;43322;52.230;5.702;2022-11-02T03:00:28;3.40;;;1.08;;
23718;SDS011;43322;52.230;5.702;2022-11-02T03:02:58;3.10;;;1.20;;
23718;SDS011;43322;52.230;5.702;2022-11-02T03:05:29;3.58;;;1.20;;
23718;SDS011;43322;52.230;5.702;2022-11-02T03:07:59;9.70;;;1.80;;
23718;SDS011;43322;52.230;5.702;2022-11-02T03:10:30;3.42;;;1.27;;
23718;SDS011;43322;52.230;5.702;2022-11-02T03:13:03;5.82;;;1.75;;
23718;SDS011;43322;52.230;5.702;2022-11-02T03:15:39;7.22;;;1.80;;
23718;SDS011;43322;52.230;5.702;2022-11-02T03:18:09;7.60;;;1.85;;
23718;SDS011;43322;52.230;5.702;2022-11-02T03:20:46;3.25;;;1.80;;
23718;SDS011;43322;52.230;5.702;2022-11-02T03:23:23;7.78;;;1.80;;
23718;SDS011;43322;52.230;5.702;2022-11-02T03:25:57;7.20;;;2.42;;
23718;SDS011;43322;52.230;5.702;2022-11-02T03:28:31;8.57;;;2.10;;
23718;SDS011;43322;52.230;5.702;2022-11-02T03:31:10;5.55;;;2.22;;
23718;SDS011;43322;52.230;5.702;2022-11-02T03:33:43;6.40;;;2.20;;
23718;SDS011;43322;52.230;5.702;2022-11-02T03:36:13;10.60;;;1.95;;
23718;SDS011;43322;52.230;5.702;2022-11-02T03:38:43;6.15;;;1.80;;
23718;SDS011;43322;52.230;5.702;2022-11-02T03:41:12;5.10;;;1.70;;
23718;SDS011;43322;52.230;5.702;2022-11-02T03:43:41;7.22;;;2.35;;
23718;SDS011;43322;52.230;5.702;2022-11-02T03:46:11;9.10;;;2.30;;
23718;SDS011;43322;52.230;5.702;2022-11-02T03:48:41;8.07;;;1.85;;
23718;SDS011;43322;52.230;5.702;2022-11-02T03:51:13;8.00;;;2.10;;
23718;SDS011;43322;52.230;5.702;2022-11-02T03:53:43;5.72;;;2.10;;
23718;SDS011;43322;52.230;5.702;2022-11-02T03:56:16;6.57;;;2.00;;
23718;SDS011;43322;52.230;5.702;2022-11-02T03:58:47;9.00;;;2.13;;
23718;SDS011;43322;52.230;5.702;2022-11-02T04:01:15;8.32;;;2.00;;
23718;SDS011;43322;52.230;5.702;2022-11-02T04:03:44;11.68;;;2.38;;
23718;SDS011;43322;52.230;5.702;2022-11-02T04:06:12;10.77;;;1.73;;
23718;SDS011;43322;52.230;5.702;2022-11-02T04:08:41;6.72;;;1.90;;
23718;SDS011;43322;52.230;5.702;2022-11-02T04:11:09;5.68;;;1.63;;
23718;SDS011;43322;52.230;5.702;2022-11-02T04:13:54;9.60;;;2.08;;
23718;SDS011;43322;52.230;5.702;2022-11-02T04:16:40;6.63;;;1.90;;
23718;SDS011;43322;52.230;5.702;2022-11-02T04:19:07;13.43;;;2.08;;
23718;SDS011;43322;52.230;5.702;2022-11-02T04:21:52;21.58;;;2.28;;
23718;SDS011;43322;52.230;5.702;2022-11-02T04:24:36;10.90;;;1.80;;
23718;SDS011;43322;52.230;5.702;2022-11-02T04:27:20;10.60;;;2.15;;
23718;SDS011;43322;52.230;5.702;2022-11-02T04:29:47;9.65;;;2.28;;
23718;SDS011;43322;52.230;5.702;2022-11-02T04:32:15;8.45;;;2.08;;
23718;SDS011;43322;52.230;5.702;2022-11-02T04:35:02;9.85;;;1.95;;
23718;SDS011;43322;52.230;5.702;2022-11-02T04:37:28;9.30;;;2.13;;
23718;SDS011;43322;52.230;5.702;2022-11-02T04:40:13;13.77;;;2.47;;
23718;SDS011;43322;52.230;5.702;2022-11-02T04:42:40;12.15;;;2.45;;
23718;SDS011;43322;52.230;5.702;2022-11-02T04:45:11;10.13;;;2.70;;
23718;SDS011;43322;52.230;5.702;2022-11-02T04:47:39;11.13;;;2.47;;
23718;SDS011;43322;52.230;5.702;2022-11-02T04:50:06;12.43;;;2.60;;
23718;SDS011;43322;52.230;5.702;2022-11-02T04:52:33;8.63;;;2.50;;
23718;SDS011;43322;52.230;5.702;2022-11-02T04:55:00;12.82;;;2.17;;
23718;SDS011;43322;52.230;5.702;2022-11-02T04:57:26;10.98;;;2.42;;
23718;SDS011;43322;52.230;5.702;2022-11-02T04:59:53;12.02;;;2.25;;
23718;SDS011;43322;52.230;5.702;2022-11-02T05:02:20;14.23;;;3.10;;
23718;SDS011;43322;52.230;5.702;2022-11-02T05:04:48;7.47;;;2.05;;
23718;SDS011;43322;52.230;5.702;2022-11-02T05:07:15;10.48;;;2.15;;
23718;SDS011;43322;52.230;5.702;2022-11-02T05:09:42;12.93;;;2.33;;
23718;SDS011;43322;52.230;5.702;2022-11-02T05:12:08;8.60;;;2.25;;
23718;SDS011;43322;52.230;5.702;2022-11-02T05:14:35;15.18;;;3.10;;
23718;SDS011;43322;52.230;5.702;2022-11-02T05:17:02;9.05;;;2.30;;
23718;SDS011;43322;52.230;5.702;2022-11-02T05:19:28;11.18;;;2.58;;
23718;SDS011;43322;52.230;5.702;2022-11-02T05:21:56;10.45;;;2.47;;
23718;SDS011;43322;52.230;5.702;2022-11-02T05:24:23;14.70;;;2.55;;
23718;SDS011;43322;52.230;5.702;2022-11-02T05:26:50;13.93;;;2.97;;
23718;SDS011;43322;52.230;5.702;2022-11-02T05:29:17;9.10;;;2.40;;
23718;SDS011;43322;52.230;5.702;2022-11-02T05:31:43;18.95;;;2.90;;
23718;SDS011;43322;52.230;5.702;2022-11-02T05:34:10;12.55;;;2.28;;
23718;SDS011;43322;52.230;5.702;2022-11-02T05:36:37;12.13;;;2.72;;
23718;SDS011;43322;52.230;5.702;2022-11-02T05:39:05;12.18;;;2.75;;
23718;SDS011;43322;52.230;5.702;2022-11-02T05:41:31;13.18;;;2.38;;
23718;SDS011;43322;52.230;5.702;2022-11-02T05:43:58;10.70;;;2.10;;
23718;SDS011;43322;52.230;5.702;2022-11-02T05:46:25;7.47;;;2.10;;
23718;SDS011;43322;52.230;5.702;2022-11-02T05:48:51;8.70;;;2.30;;
23718;SDS011;43322;52.230;5.702;2022-11-02T05:51:18;11.98;;;2.38;;
23718;SDS011;43322;52.230;5.702;2022-11-02T05:53:45;13.75;;;2.63;;
23718;SDS011;43322;52.230;5.702;2022-11-02T05:56:13;11.88;;;3.15;;
23718;SDS011;43322;52.230;5.702;2022-11-02T05:58:40;11.70;;;2.75;;
23718;SDS011;43322;52.230;5.702;2022-11-02T06:01:07;9.15;;;2.22;;
23718;SDS011;43322;52.230;5.702;2022-11-02T06:03:35;9.77;;;2.47;;
23718;SDS011;43322;52.230;5.702;2022-11-02T06:06:03;12.13;;;2.90;;
23718;SDS011;43322;52.230;5.702;2022-11-02T06:08:31;13.90;;;2.30;;
23718;SDS011;43322;52.230;5.702;2022-11-02T06:10:58;16.42;;;2.75;;
23718;SDS011;43322;52.230;5.702;2022-11-02T06:13:30;15.38;;;2.33;;
23718;SDS011;43322;52.230;5.702;2022-11-02T06:15:57;12.00;;;2.40;;
23718;SDS011;43322;52.230;5.702;2022-11-02T06:18:24;13.38;;;3.03;;
23718;SDS011;43322;52.230;5.702;2022-11-02T06:20:51;13.85;;;2.42;;
23718;SDS011;43322;52.230;5.702;2022-11-02T06:23:17;13.40;;;2.70;;
23718;SDS011;43322;52.230;5.702;2022-11-02T06:25:49;10.85;;;2.60;;
23718;SDS011;43322;52.230;5.702;2022-11-02T06:28:16;10.85;;;2.08;;
23718;SDS011;43322;52.230;5.702;2022-11-02T06:30:44;9.25;;;1.80;;
23718;SDS011;43322;52.230;5.702;2022-11-02T06:33:10;12.10;;;2.15;;
23718;SDS011;43322;52.230;5.702;2022-11-02T06:35:37;9.65;;;2.72;;
23718;SDS011;43322;52.230;5.702;2022-11-02T06:38:04;9.80;;;2.47;;
23718;SDS011;43322;52.230;5.702;2022-11-02T06:40:30;7.93;;;2.47;;
23718;SDS011;43322;52.230;5.702;2022-11-02T06:42:57;9.30;;;2.03;;
23718;SDS011;43322;52.230;5.702;2022-11-02T06:45:24;11.45;;;2.10;;
23718;SDS011;43322;52.230;5.702;2022-11-02T06:47:52;6.60;;;1.63;;
23718;SDS011;43322;52.230;5.702;2022-11-02T06:50:19;7.30;;;1.88;;
23718;SDS011;43322;52.230;5.702;2022-11-02T06:52:46;7.55;;;1.98;;
23718;SDS011;43322;52.230;5.702;2022-11-02T06:55:14;12.43;;;2.28;;
23718;SDS011;43322;52.230;5.702;2022-11-02T06:57:41;10.93;;;2.40;;
23718;SDS011;43322;52.230;5.702;2022-11-02T07:00:10;11.85;;;2.10;;
23718;SDS011;43322;52.230;5.702;2022-11-02T07:02:38;14.85;;;2.78;;
23718;SDS011;43322;52.230;5.702;2022-11-02T07:05:06;13.32;;;2.55;;
23718;SDS011;43322;52.230;5.702;2022-11-02T07:07:33;13.05;;;2.30;;
23718;SDS011;43322;52.230;5.702;2022-11-02T07:10:00;14.65;;;2.40;;
23718;SDS011;43322;52.230;5.702;2022-11-02T07:12:27;14.60;;;2.17;;
23718;SDS011;43322;52.230;5.702;2022-11-02T07:14:53;8.80;;;1.73;;
23718;SDS011;43322;52.230;5.702;2022-11-02T07:17:20;7.10;;;2.67;;
23718;SDS011;43322;52.230;5.702;2022-11-02T07:19:47;9.15;;;2.05;;
23718;SDS011;43322;52.230;5.702;2022-11-02T07:22:15;9.07;;;1.80;;
23718;SDS011;43322;52.230;5.702;2022-11-02T07:24:41;9.00;;;2.60;;
23718;SDS011;43322;52.230;5.702;2022-11-02T07:27:08;8.60;;;2.03;;
23718;SDS011;43322;52.230;5.702;2022-11-02T07:29:35;13.93;;;1.95;;
23718;SDS011;43322;52.230;5.702;2022-11-02T07:32:01;10.18;;;2.38;;
23718;SDS011;43322;52.230;5.702;2022-11-02T07:34:30;3.92;;;1.40;;
23718;SDS011;43322;52.230;5.702;2022-11-02T07:36:57;7.30;;;2.30;;
23718;SDS011;43322;52.230;5.702;2022-11-02T07:39:25;10.95;;;2.33;;
23718;SDS011;43322;52.230;5.702;2022-11-02T07:41:52;7.20;;;1.83;;
23718;SDS011;43322;52.230;5.702;2022-11-02T07:44:18;8.63;;;2.63;;
23718;SDS011;43322;52.230;5.702;2022-11-02T07:46:45;12.48;;;1.92;;
23718;SDS011;43322;52.230;5.702;2022-11-02T07:49:12;8.30;;;1.67;;
23718;SDS011;43322;52.230;5.702;2022-11-02T07:51:38;10.82;;;2.10;;
23718;SDS011;43322;52.230;5.702;2022-11-02T07:54:05;7.00;;;1.80;;
23718;SDS011;43322;52.230;5.702;2022-11-02T07:56:33;6.85;;;1.80;;
23718;SDS011;43322;52.230;5.702;2022-11-02T07:59:00;6.22;;;1.83;;
23718;SDS011;43322;52.230;5.702;2022-11-02T08:01:27;6.35;;;2.17;;
23718;SDS011;43322;52.230;5.702;2022-11-02T08:03:53;4.70;;;1.42;;
23718;SDS011;43322;52.230;5.702;2022-11-02T08:06:20;5.60;;;1.63;;
23718;SDS011;43322;52.230;5.702;2022-11-02T08:08:47;6.53;;;1.75;;
23718;SDS011;43322;52.230;5.702;2022-11-02T08:11:14;8.77;;;2.20;;
23718;SDS011;43322;52.230;5.702;2022-11-02T08:13:42;10.63;;;2.80;;
23718;SDS011;43322;52.230;5.702;2022-11-02T08:16:09;8.15;;;2.03;;
23718;SDS011;43322;52.230;5.702;2022-11-02T08:18:36;6.45;;;2.00;;
23718;SDS011;43322;52.230;5.702;2022-11-02T08:21:03;10.18;;;2.00;;
23718;SDS011;43322;52.230;5.702;2022-11-02T08:23:30;5.78;;;1.58;;
23718;SDS011;43322;52.230;5.702;2022-11-02T08:25:57;6.45;;;1.75;;
23718;SDS011;43322;52.230;5.702;2022-11-02T08:28:24;9.43;;;2.15;;
23718;SDS011;43322;52.230;5.702;2022-11-02T08:30:54;7.88;;;2.10;;
23718;SDS011;43322;52.230;5.702;2022-11-02T08:33:20;4.10;;;1.55;;
23718;SDS011;43322;52.230;5.702;2022-11-02T08:35:47;10.05;;;2.28;;
23718;SDS011;43322;52.230;5.702;2022-11-02T08:38:15;12.25;;;1.85;;
23718;SDS011;43322;52.230;5.702;2022-11-02T08:40:42;11.85;;;2.38;;
23718;SDS011;43322;52.230;5.702;2022-11-02T08:43:10;8.90;;;1.60;;
23718;SDS011;43322;52.230;5.702;2022-11-02T08:45:38;7.13;;;1.63;;
23718;SDS011;43322;52.230;5.702;2022-11-02T08:48:07;9.45;;;1.70;;
23718;SDS011;43322;52.230;5.702;2022-11-02T08:50:34;9.00;;;1.85;;
23718;SDS011;43322;52.230;5.702;2022-11-02T08:53:01;5.15;;;1.30;;
23718;SDS011;43322;52.230;5.702;2022-11-02T08:55:28;6.47;;;1.30;;
23718;SDS011;43322;52.230;5.702;2022-11-02T08:57:56;9.23;;;1.63;;
23718;SDS011;43322;52.230;5.702;2022-11-02T09:00:25;11.05;;;1.90;;
23718;SDS011;43322;52.230;5.702;2022-11-02T09:02:56;13.27;;;2.15;;
23718;SDS011;43322;52.230;5.702;2022-11-02T09:05:26;7.75;;;1.75;;
23718;SDS011;43322;52.230;5.702;2022-11-02T09:07:53;8.85;;;1.95;;
23718;SDS011;43322;52.230;5.702;2022-11-02T09:10:20;6.97;;;1.52;;
23718;SDS011;43322;52.230;5.702;2022-11-02T09:12:47;9.77;;;1.92;;
23718;SDS011;43322;52.230;5.702;2022-11-02T09:15:14;8.00;;;2.00;;
23718;SDS011;43322;52.230;5.702;2022-11-02T09:17:40;10.32;;;1.70;;
23718;SDS011;43322;52.230;5.702;2022-11-02T09:20:07;9.82;;;1.58;;
23718;SDS011;43322;52.230;5.702;2022-11-02T09:22:36;6.55;;;1.80;;
23718;SDS011;43322;52.230;5.702;2022-11-02T09:25:03;9.43;;;1.83;;
23718;SDS011;43322;52.230;5.702;2022-11-02T09:27:30;11.30;;;2.10;;
23718;SDS011;43322;52.230;5.702;2022-11-02T09:29:57;4.50;;;1.75;;
23718;SDS011;43322;52.230;5.702;2022-11-02T09:32:23;6.82;;;1.90;;
23718;SDS011;43322;52.230;5.702;2022-11-02T09:34:50;10.23;;;2.35;;
23718;SDS011;43322;52.230;5.702;2022-11-02T09:37:17;9.23;;;1.92;;
23718;SDS011;43322;52.230;5.702;2022-11-02T09:39:45;7.47;;;2.33;;
23718;SDS011;43322;52.230;5.702;2022-11-02T09:42:12;10.30;;;2.05;;
23718;SDS011;43322;52.230;5.702;2022-11-02T09:44:48;8.18;;;2.08;;
23718;SDS011;43322;52.230;5.702;2022-11-02T09:47:18;9.93;;;1.90;;
23718;SDS011;43322;52.230;5.702;2022-11-02T09:49:46;8.50;;;2.13;;
23718;SDS011;43322;52.230;5.702;2022-11-02T09:52:24;8.65;;;2.28;;
23718;SDS011;43322;52.230;5.702;2022-11-02T09:54:58;12.65;;;1.95;;
23718;SDS011;43322;52.230;5.702;2022-11-02T09:57:29;11.82;;;2.05;;
23718;SDS011;43322;52.230;5.702;2022-11-02T09:59:58;9.95;;;2.45;;
23718;SDS011;43322;52.230;5.702;2022-11-02T10:02:27;9.73;;;1.75;;
23718;SDS011;43322;52.230;5.702;2022-11-02T10:05:07;8.40;;;2.13;;
23718;SDS011;43322;52.230;5.702;2022-11-02T10:07:53;8.35;;;1.77;;
23718;SDS011;43322;52.230;5.702;2022-11-02T10:10:35;12.48;;;1.80;;
23718;SDS011;43322;52.230;5.702;2022-11-02T10:13:09;9.80;;;1.80;;
23718;SDS011;43322;52.230;5.702;2022-11-02T10:15:44;7.53;;;1.70;;
23718;SDS011;43322;52.230;5.702;2022-11-02T10:18:15;10.00;;;2.00;;
23718;SDS011;43322;52.230;5.702;2022-11-02T10:20:45;9.55;;;1.70;;
23718;SDS011;43322;52.230;5.702;2022-11-02T10:23:16;5.82;;;1.77;;
23718;SDS011;43322;52.230;5.702;2022-11-02T10:25:47;7.28;;;2.20;;
23718;SDS011;43322;52.230;5.702;2022-11-02T10:28:14;6.97;;;1.70;;
23718;SDS011;43322;52.230;5.702;2022-11-02T10:30:44;11.43;;;2.03;;
23718;SDS011;43322;52.230;5.702;2022-11-02T10:33:11;7.82;;;1.88;;
23718;SDS011;43322;52.230;5.702;2022-11-02T10:35:46;10.75;;;1.70;;
23718;SDS011;43322;52.230;5.702;2022-11-02T10:38:25;8.68;;;1.83;;
23718;SDS011;43322;52.230;5.702;2022-11-02T10:41:13;8.73;;;2.33;;
23718;SDS011;43322;52.230;5.702;2022-11-02T10:43:56;11.10;;;2.10;;
23718;SDS011;43322;52.230;5.702;2022-11-02T10:46:40;11.27;;;2.20;;
23718;SDS011;43322;52.230;5.702;2022-11-02T10:49:16;11.27;;;1.95;;
23718;SDS011;43322;52.230;5.702;2022-11-02T10:51:54;6.93;;;1.58;;
23718;SDS011;43322;52.230;5.702;2022-11-02T10:54:21;6.20;;;1.33;;
23718;SDS011;43322;52.230;5.702;2022-11-02T10:56:50;7.63;;;1.80;;
23718;SDS011;43322;52.230;5.702;2022-11-02T10:59:17;8.45;;;2.08;;
23718;SDS011;43322;52.230;5.702;2022-11-02T11:02:03;7.35;;;2.05;;
23718;SDS011;43322;52.230;5.702;2022-11-02T11:04:35;11.50;;;2.03;;
23718;SDS011;43322;52.230;5.702;2022-11-02T11:07:03;6.40;;;1.80;;
23718;SDS011;43322;52.230;5.702;2022-11-02T11:09:33;8.63;;;1.58;;
23718;SDS011;43322;52.230;5.702;2022-11-02T11:12:06;10.95;;;1.67;;
23718;SDS011;43322;52.230;5.702;2022-11-02T11:14:45;13.90;;;2.10;;
23718;SDS011;43322;52.230;5.702;2022-11-02T11:17:14;3.10;;;1.73;;
23718;SDS011;43322;52.230;5.702;2022-11-02T11:19:45;10.85;;;2.22;;
23718;SDS011;43322;52.230;5.702;2022-11-02T11:22:22;7.03;;;2.33;;
23718;SDS011;43322;52.230;5.702;2022-11-02T11:24:54;7.35;;;1.95;;
23718;SDS011;43322;52.230;5.702;2022-11-02T11:27:47;5.03;;;1.90;;
23718;SDS011;43322;52.230;5.702;2022-11-02T11:30:22;6.95;;;1.67;;
23718;SDS011;43322;52.230;5.702;2022-11-02T11:32:50;12.30;;;2.22;;
23718;SDS011;43322;52.230;5.702;2022-11-02T11:35:18;8.65;;;1.95;;
23718;SDS011;43322;52.230;5.702;2022-11-02T11:37:46;5.28;;;1.80;;
23718;SDS011;43322;52.230;5.702;2022-11-02T11:40:15;8.85;;;1.65;;
23718;SDS011;43322;52.230;5.702;2022-11-02T11:42:44;11.02;;;1.80;;
23718;SDS011;43322;52.230;5.702;2022-11-02T11:45:17;9.45;;;2.40;;
23718;SDS011;43322;52.230;5.702;2022-11-02T11:47:49;8.25;;;2.38;;
23718;SDS011;43322;52.230;5.702;2022-11-02T11:50:18;11.60;;;2.00;;
23718;SDS011;43322;52.230;5.702;2022-11-02T11:52:45;8.60;;;2.58;;
23718;SDS011;43322;52.230;5.702;2022-11-02T11:55:19;10.95;;;2.28;;
23718;SDS011;43322;52.230;5.702;2022-11-02T12:01:02;12.52;;;2.00;;
23718;SDS011;43322;52.230;5.702;2022-11-02T12:03:31;11.70;;;1.90;;
23718;SDS011;43322;52.230;5.702;2022-11-02T12:06:00;6.97;;;1.92;;
23718;SDS011;43322;52.230;5.702;2022-11-02T12:08:40;7.60;;;1.90;;
23718;SDS011;43322;52.230;5.702;2022-11-02T12:11:20;8.07;;;1.75;;
23718;SDS011;43322;52.230;5.702;2022-11-02T12:13:56;7.53;;;2.00;;
23718;SDS011;43322;52.230;5.702;2022-11-02T12:16:36;10.15;;;1.95;;
23718;SDS011;43322;52.230;5.702;2022-11-02T12:19:19;8.48;;;2.00;;
23718;SDS011;43322;52.230;5.702;2022-11-02T12:21:58;8.00;;;2.22;;
23718;SDS011;43322;52.230;5.702;2022-11-02T12:24:34;7.63;;;1.77;;
23718;SDS011;43322;52.230;5.702;2022-11-02T12:27:19;9.10;;;2.65;;
23718;SDS011;43322;52.230;5.702;2022-11-02T12:29:59;8.50;;;1.95;;
23718;SDS011;43322;52.230;5.702;2022-11-02T12:32:47;9.57;;;2.33;;
23718;SDS011;43322;52.230;5.702;2022-11-02T12:35:26;8.25;;;2.00;;
23718;SDS011;43322;52.230;5.702;2022-11-02T12:38:07;11.43;;;2.08;;
23718;SDS011;43322;52.230;5.702;2022-11-02T12:40:45;10.05;;;2.38;;
23718;SDS011;43322;52.230;5.702;2022-11-02T12:43:23;7.57;;;2.17;;
23718;SDS011;43322;52.230;5.702;2022-11-02T12:46:04;7.47;;;1.73;;
23718;SDS011;43322;52.230;5.702;2022-11-02T12:48:43;3.92;;;1.88;;
23718;SDS011;43322;52.230;5.702;2022-11-02T12:51:19;6.03;;;1.58;;
23718;SDS011;43322;52.230;5.702;2022-11-02T12:53:50;8.32;;;2.13;;
23718;SDS011;43322;52.230;5.702;2022-11-02T12:56:21;5.22;;;1.83;;
23718;SDS011;43322;52.230;5.702;2022-11-02T12:58:53;8.18;;;1.75;;
23718;SDS011;43322;52.230;5.702;2022-11-02T13:01:23;7.03;;;1.80;;
23718;SDS011;43322;52.230;5.702;2022-11-02T13:03:55;6.80;;;1.90;;
23718;SDS011;43322;52.230;5.702;2022-11-02T13:06:27;8.68;;;1.73;;
23718;SDS011;43322;52.230;5.702;2022-11-02T13:09:00;10.13;;;1.70;;
23718;SDS011;43322;52.230;5.702;2022-11-02T13:11:33;6.57;;;1.85;;
23718;SDS011;43322;52.230;5.702;2022-11-02T13:14:03;6.68;;;1.77;;
23718;SDS011;43322;52.230;5.702;2022-11-02T13:16:36;4.35;;;1.65;;
23718;SDS011;43322;52.230;5.702;2022-11-02T13:19:10;5.78;;;1.77;;
23718;SDS011;43322;52.230;5.702;2022-11-02T13:21:44;9.18;;;2.08;;
23718;SDS011;43322;52.230;5.702;2022-11-02T13:24:19;7.35;;;1.60;;
23718;SDS011;43322;52.230;5.702;2022-11-02T13:26:49;10.77;;;1.50;;
23718;SDS011;43322;52.230;5.702;2022-11-02T13:29:18;6.45;;;1.63;;
23718;SDS011;43322;52.230;5.702;2022-11-02T13:31:50;6.85;;;1.38;;
23718;SDS011;43322;52.230;5.702;2022-11-02T13:34:26;7.60;;;1.88;;
23718;SDS011;43322;52.230;5.702;2022-11-02T13:36:57;8.80;;;1.95;;
23718;SDS011;43322;52.230;5.702;2022-11-02T13:39:34;5.90;;;1.83;;
23718;SDS011;43322;52.230;5.702;2022-11-02T13:42:10;6.22;;;1.60;;
23718;SDS011;43322;52.230;5.702;2022-11-02T13:45:04;12.00;;;2.78;;
23718;SDS011;43322;52.230;5.702;2022-11-02T13:47:49;7.07;;;1.90;;
23718;SDS011;43322;52.230;5.702;2022-11-02T13:50:30;8.57;;;1.70;;
23718;SDS011;43322;52.230;5.702;2022-11-02T13:53:00;7.70;;;2.25;;
23718;SDS011;43322;52.230;5.702;2022-11-02T13:55:32;10.65;;;1.70;;
23718;SDS011;43322;52.230;5.702;2022-11-02T13:58:05;11.13;;;2.25;;
23718;SDS011;43322;52.230;5.702;2022-11-02T14:00:40;8.60;;;2.25;;
23718;SDS011;43322;52.230;5.702;2022-11-02T14:03:11;7.80;;;2.28;;
23718;SDS011;43322;52.230;5.702;2022-11-02T14:05:43;7.40;;;2.13;;
23718;SDS011;43322;52.230;5.702;2022-11-02T14:08:16;8.02;;;2.08;;
23718;SDS011;43322;52.230;5.702;2022-11-02T14:11:00;8.68;;;1.73;;
23718;SDS011;43322;52.230;5.702;2022-11-02T14:16:40;6.93;;;1.65;;
23718;SDS011;43322;52.230;5.702;2022-11-02T14:19:18;4.65;;;1.58;;
23718;SDS011;43322;52.230;5.702;2022-11-02T14:27:38;7.03;;;2.03;;
23718;SDS011;43322;52.230;5.702;2022-11-02T14:33:13;5.40;;;1.85;;
23718;SDS011;43322;52.230;5.702;2022-11-02T14:36:01;6.15;;;2.00;;
23718;SDS011;43322;52.230;5.702;2022-11-02T14:44:39;7.22;;;2.17;;
23718;SDS011;43322;52.230;5.702;2022-11-02T14:47:26;7.75;;;1.95;;
23718;SDS011;43322;52.230;5.702;2022-11-02T14:49:55;13.73;;;2.53;;
23718;SDS011;43322;52.230;5.702;2022-11-02T14:52:27;10.98;;;2.17;;
23718;SDS011;43322;52.230;5.702;2022-11-02T14:54:59;9.32;;;2.15;;
23718;SDS011;43322;52.230;5.702;2022-11-02T14:57:30;8.23;;;1.88;;
23718;SDS011;43322;52.230;5.702;2022-11-02T15:00:00;16.20;;;2.10;;
23718;SDS011;43322;52.230;5.702;2022-11-02T15:02:31;11.20;;;2.05;;
23718;SDS011;43322;52.230;5.702;2022-11-02T15:05:01;7.15;;;2.05;;
23718;SDS011;43322;52.230;5.702;2022-11-02T15:07:31;11.70;;;2.15;;
23718;SDS011;43322;52.230;5.702;2022-11-02T15:10:04;9.57;;;2.33;;
23718;SDS011;43322;52.230;5.702;2022-11-02T15:18:48;15.10;;;2.55;;
23718;SDS011;43322;52.230;5.702;2022-11-02T15:21:25;13.30;;;2.58;;
23718;SDS011;43322;52.230;5.702;2022-11-02T15:23:54;12.07;;;2.35;;
23718;SDS011;43322;52.230;5.702;2022-11-02T15:26:32;12.82;;;3.55;;
23718;SDS011;43322;52.230;5.702;2022-11-02T15:29:06;11.55;;;2.33;;
23718;SDS011;43322;52.230;5.702;2022-11-02T15:31:40;10.50;;;2.80;;